createdAt,value
2023-05-05T00:00:11.529Z,839.00
2023-05-05T00:01:10.642Z,854.00
2023-05-05T00:02:10.696Z,842.00
2023-05-05T00:03:11.753Z,841.00
2023-05-05T00:04:10.835Z,843.00
2023-05-05T00:05:10.775Z,842.00
2023-05-05T00:06:11.811Z,846.00
2023-05-05T00:07:10.805Z,829.00
2023-05-05T00:08:10.956Z,836.00
2023-05-05T00:09:10.882Z,832.00
2023-05-05T00:10:11.904Z,834.00
2023-05-05T00:11:10.956Z,830.00
2023-05-05T00:12:11.961Z,833.00
2023-05-05T00:13:11.014Z,830.00
2023-05-05T00:14:10.945Z,834.00
2023-05-05T00:15:10.987Z,828.00
2023-05-05T00:16:12.066Z,825.00
2023-05-05T00:17:12.264Z,833.00
2023-05-05T00:18:12.143Z,832.00
2023-05-05T00:19:12.158Z,830.00
2023-05-05T00:20:11.129Z,827.00
2023-05-05T00:21:11.137Z,821.00
2023-05-05T00:22:11.237Z,826.00
2023-05-05T00:23:11.305Z,833.00
2023-05-05T00:24:11.358Z,823.00
2023-05-05T00:25:11.374Z,817.00
2023-05-05T00:26:11.295Z,826.00
2023-05-05T00:27:11.328Z,832.00
2023-05-05T00:28:12.489Z,818.00
2023-05-05T00:29:11.400Z,814.00
2023-05-05T00:30:12.435Z,815.00
2023-05-05T00:31:12.566Z,831.00
2023-05-05T00:32:11.513Z,807.00
2023-05-05T00:33:12.559Z,809.00
2023-05-05T00:34:11.707Z,822.00
2023-05-05T00:35:12.629Z,804.00
2023-05-05T00:36:11.640Z,811.00
2023-05-05T00:37:11.679Z,815.00
2023-05-05T00:38:12.690Z,816.00
2023-05-05T00:39:12.717Z,819.00
2023-05-05T00:40:12.861Z,808.00
2023-05-05T00:41:11.879Z,806.00
2023-05-05T00:42:11.936Z,804.00
2023-05-05T00:43:11.948Z,806.00
2023-05-05T00:44:11.998Z,801.00
2023-05-05T00:45:12.014Z,813.00
2023-05-05T00:46:12.052Z,798.00
2023-05-05T00:47:11.978Z,807.00
2023-05-05T00:48:12.125Z,810.00
2023-05-05T00:49:12.064Z,807.00
2023-05-05T00:50:12.085Z,799.00
2023-05-05T00:51:12.169Z,805.00
2023-05-05T00:52:12.158Z,791.00
2023-05-05T00:53:13.297Z,807.00
2023-05-05T00:54:13.373Z,808.00
2023-05-05T00:55:12.254Z,786.00
2023-05-05T00:56:13.323Z,794.00
2023-05-05T00:57:13.442Z,800.00
2023-05-05T00:58:12.482Z,798.00
2023-05-05T00:59:12.425Z,802.00
2023-05-05T01:00:12.562Z,793.00
2023-05-05T01:01:12.585Z,799.00
2023-05-05T01:02:12.539Z,791.00
2023-05-05T01:03:13.749Z,803.00
2023-05-05T01:04:12.736Z,801.00
2023-05-05T01:05:12.699Z,792.00
2023-05-05T01:06:12.759Z,788.00
2023-05-05T01:07:12.833Z,801.00
2023-05-05T01:08:13.840Z,789.00
2023-05-05T01:09:12.889Z,793.00
2023-05-05T01:10:19.706Z,784.00
2023-05-05T01:11:13.817Z,786.00
2023-05-05T01:12:12.847Z,786.00
2023-05-05T01:13:13.858Z,787.00
2023-05-05T01:14:13.817Z,792.00
2023-05-05T01:15:13.879Z,801.00
2023-05-05T01:16:12.851Z,792.00
2023-05-05T01:17:12.787Z,795.00
2023-05-05T01:18:12.849Z,784.00
2023-05-05T01:19:12.775Z,785.00
2023-05-05T01:20:12.837Z,788.00
2023-05-05T01:21:12.757Z,779.00
2023-05-05T01:22:13.845Z,782.00
2023-05-05T01:23:13.742Z,775.00
2023-05-05T01:24:12.880Z,777.00
2023-05-05T01:25:13.035Z,775.00
2023-05-05T01:26:12.974Z,786.00
2023-05-05T01:27:12.896Z,781.00
2023-05-05T01:28:13.060Z,788.00
2023-05-05T01:29:13.021Z,770.00
2023-05-05T01:30:13.065Z,775.00
2023-05-05T01:31:13.083Z,776.00
2023-05-05T01:32:14.111Z,764.00
2023-05-05T01:33:14.167Z,772.00
2023-05-05T01:34:14.304Z,766.00
2023-05-05T01:35:13.337Z,769.00
2023-05-05T01:36:14.277Z,766.00
2023-05-05T01:37:13.364Z,766.00
2023-05-05T01:38:13.361Z,763.00
2023-05-05T01:39:14.418Z,767.00
2023-05-05T01:40:14.442Z,769.00
2023-05-05T01:41:14.551Z,771.00
2023-05-05T01:42:15.268Z,769.00
2023-05-05T01:43:13.562Z,769.00
2023-05-05T01:44:14.800Z,772.00
2023-05-05T01:45:13.732Z,761.00
2023-05-05T01:46:13.812Z,768.00
2023-05-05T01:47:14.798Z,759.00
2023-05-05T01:48:14.910Z,746.00
2023-05-05T01:49:13.845Z,762.00
2023-05-05T01:50:13.990Z,758.00
2023-05-05T01:51:14.036Z,766.00
2023-05-05T01:52:14.083Z,753.00
2023-05-05T01:53:14.033Z,756.00
2023-05-05T01:54:14.178Z,754.00
2023-05-05T01:55:14.139Z,759.00
2023-05-05T01:56:14.170Z,760.00
2023-05-05T01:57:14.301Z,754.00
2023-05-05T01:58:14.373Z,749.00
2023-05-05T01:59:15.455Z,749.00
2023-05-05T02:00:14.468Z,761.00
2023-05-05T02:01:14.530Z,749.00
2023-05-05T02:02:14.592Z,753.00
2023-05-05T02:03:14.684Z,752.00
2023-05-05T02:04:15.608Z,747.00
2023-05-05T02:05:15.722Z,743.00
2023-05-05T02:06:14.768Z,753.00
2023-05-05T02:07:14.712Z,745.00
2023-05-05T02:08:15.854Z,741.00
2023-05-05T02:09:14.832Z,741.00
2023-05-05T02:10:14.976Z,748.00
2023-05-05T02:11:14.968Z,732.00
2023-05-05T02:12:15.024Z,733.00
2023-05-05T02:13:15.265Z,751.00
2023-05-05T02:14:16.166Z,735.00
2023-05-05T02:15:15.190Z,739.00
2023-05-05T02:16:15.240Z,734.00
2023-05-05T02:17:15.208Z,732.00
2023-05-05T02:18:16.358Z,738.00
2023-05-05T02:19:15.303Z,740.00
2023-05-05T02:20:15.443Z,745.00
2023-05-05T02:21:16.484Z,728.00
2023-05-05T02:22:15.482Z,733.00
2023-05-05T02:23:15.524Z,734.00
2023-05-05T02:24:16.679Z,736.00
2023-05-05T02:25:15.733Z,735.00
2023-05-05T02:26:15.735Z,735.00
2023-05-05T02:27:15.842Z,729.00
2023-05-05T02:28:16.891Z,727.00
2023-05-05T02:29:15.825Z,732.00
2023-05-05T02:30:17.013Z,729.00
2023-05-05T02:31:16.018Z,732.00
2023-05-05T02:32:16.088Z,719.00
2023-05-05T02:33:16.113Z,709.00
2023-05-05T02:34:16.090Z,718.00
2023-05-05T02:35:17.241Z,716.00
2023-05-05T02:36:17.186Z,711.00
2023-05-05T02:37:17.272Z,717.00
2023-05-05T02:38:16.295Z,728.00
2023-05-05T02:39:16.388Z,724.00
2023-05-05T02:40:16.422Z,715.00
2023-05-05T02:41:17.481Z,727.00
2023-05-05T02:42:17.578Z,725.00
2023-05-05T02:43:17.071Z,713.00
2023-05-05T02:44:16.730Z,711.00
2023-05-05T02:45:17.713Z,718.00
2023-05-05T02:46:16.878Z,718.00
2023-05-05T02:47:16.909Z,722.00
2023-05-05T02:48:16.974Z,701.00
2023-05-05T02:49:17.098Z,712.00
2023-05-05T02:50:18.107Z,708.00
2023-05-05T02:51:17.101Z,710.00
2023-05-05T02:52:17.079Z,704.00
2023-05-05T02:53:17.218Z,706.00
2023-05-05T02:54:18.229Z,701.00
2023-05-05T02:55:18.340Z,711.00
2023-05-05T02:56:17.396Z,713.00
2023-05-05T02:57:18.426Z,705.00
2023-05-05T02:58:17.504Z,710.00
2023-05-05T02:59:17.552Z,709.00
2023-05-05T03:00:17.554Z,714.00
2023-05-05T03:01:17.702Z,708.00
2023-05-05T03:02:17.739Z,707.00
2023-05-05T03:03:17.965Z,707.00
2023-05-05T03:04:18.866Z,705.00
2023-05-05T03:05:17.828Z,701.00
2023-05-05T03:06:18.949Z,719.00
2023-05-05T03:07:18.025Z,705.00
2023-05-05T03:08:18.123Z,707.00
2023-05-05T03:09:18.185Z,705.00
2023-05-05T03:10:18.183Z,698.00
2023-05-05T03:11:19.174Z,697.00
2023-05-05T03:12:19.255Z,697.00
2023-05-05T03:13:19.295Z,701.00
2023-05-05T03:14:18.406Z,700.00
2023-05-05T03:15:19.453Z,691.00
2023-05-05T03:16:18.653Z,701.00
2023-05-05T03:17:18.607Z,690.00
2023-05-05T03:18:18.702Z,683.00
2023-05-05T03:19:18.703Z,701.00
2023-05-05T03:20:18.760Z,705.00
2023-05-05T03:21:18.903Z,703.00
2023-05-05T03:22:18.915Z,699.00
2023-05-05T03:23:19.957Z,698.00
2023-05-05T03:24:19.057Z,692.00
2023-05-05T03:25:19.116Z,680.00
2023-05-05T03:26:19.230Z,698.00
2023-05-05T03:27:19.149Z,685.00
2023-05-05T03:28:19.301Z,699.00
2023-05-05T03:29:20.346Z,676.00
2023-05-05T03:30:20.439Z,692.00
2023-05-05T03:31:19.416Z,697.00
2023-05-05T03:32:20.524Z,689.00
2023-05-05T03:33:20.571Z,702.00
2023-05-05T03:34:19.629Z,701.00
2023-05-05T03:35:20.791Z,701.00
2023-05-05T03:36:19.719Z,681.00
2023-05-05T03:37:19.772Z,687.00
2023-05-05T03:38:19.813Z,699.00
2023-05-05T03:39:20.882Z,680.00
2023-05-05T03:40:23.498Z,680.00
2023-05-05T03:41:20.942Z,682.00
2023-05-05T03:42:19.953Z,686.00
2023-05-05T03:43:19.933Z,689.00
2023-05-05T03:44:19.917Z,695.00
2023-05-05T03:45:20.960Z,695.00
2023-05-05T03:46:20.038Z,691.00
2023-05-05T03:47:19.976Z,695.00
2023-05-05T03:48:19.891Z,695.00
2023-05-05T03:49:20.941Z,678.00
2023-05-05T03:50:19.876Z,683.00
2023-05-05T03:51:20.016Z,685.00
2023-05-05T03:52:19.893Z,683.00
2023-05-05T03:53:20.864Z,683.00
2023-05-05T03:54:20.884Z,681.00
2023-05-05T03:55:20.856Z,667.00
2023-05-05T03:56:19.849Z,683.00
2023-05-05T03:57:20.824Z,672.00
2023-05-05T03:58:20.856Z,689.00
2023-05-05T03:59:19.838Z,680.00
2023-05-05T04:00:20.835Z,682.00
2023-05-05T04:01:20.809Z,669.00
2023-05-05T04:02:19.950Z,678.00
2023-05-05T04:03:19.934Z,678.00
2023-05-05T04:04:19.910Z,675.00
2023-05-05T04:05:19.801Z,675.00
2023-05-05T04:06:19.914Z,683.00
2023-05-05T04:07:20.010Z,666.00
2023-05-05T04:08:20.072Z,674.00
2023-05-05T04:09:20.044Z,674.00
2023-05-05T04:10:21.100Z,677.00
2023-05-05T04:11:21.242Z,670.00
2023-05-05T04:12:20.250Z,666.00
2023-05-05T04:13:20.366Z,666.00
2023-05-05T04:14:20.378Z,670.00
2023-05-05T04:15:21.405Z,671.00
2023-05-05T04:16:21.491Z,669.00
2023-05-05T04:17:20.505Z,665.00
2023-05-05T04:18:21.549Z,670.00
2023-05-05T04:19:21.643Z,667.00
2023-05-05T04:20:21.771Z,659.00
2023-05-05T04:21:21.738Z,662.00
2023-05-05T04:22:21.775Z,666.00
2023-05-05T04:23:20.923Z,674.00
2023-05-05T04:24:21.061Z,663.00
2023-05-05T04:25:21.936Z,666.00
2023-05-05T04:26:21.998Z,664.00
2023-05-05T04:27:22.035Z,664.00
2023-05-05T04:28:22.276Z,665.00
2023-05-05T04:29:21.138Z,662.00
2023-05-05T04:30:22.204Z,663.00
2023-05-05T04:31:22.348Z,662.00
2023-05-05T04:32:21.371Z,665.00
2023-05-05T04:33:22.363Z,661.00
2023-05-05T04:34:21.472Z,666.00
2023-05-05T04:35:22.559Z,658.00
2023-05-05T04:36:21.528Z,663.00
2023-05-05T04:37:22.688Z,662.00
2023-05-05T04:38:21.721Z,664.00
2023-05-05T04:39:21.745Z,658.00
2023-05-05T04:40:21.840Z,670.00
2023-05-05T04:41:22.894Z,662.00
2023-05-05T04:42:21.940Z,661.00
2023-05-05T04:43:22.968Z,665.00
2023-05-05T04:44:22.976Z,659.00
2023-05-05T04:45:23.130Z,659.00
2023-05-05T04:46:22.243Z,662.00
2023-05-05T04:47:23.229Z,664.00
2023-05-05T04:48:22.336Z,660.00
2023-05-05T04:49:22.278Z,662.00
2023-05-05T04:50:22.368Z,656.00
2023-05-05T04:51:22.464Z,659.00
2023-05-05T04:52:22.515Z,660.00
2023-05-05T04:53:23.551Z,660.00
2023-05-05T04:54:22.587Z,654.00
2023-05-05T04:55:23.554Z,661.00
2023-05-05T04:56:23.625Z,662.00
2023-05-05T04:57:22.686Z,658.00
2023-05-05T04:58:22.706Z,657.00
2023-05-05T04:59:23.825Z,657.00
2023-05-05T05:00:22.900Z,662.00
2023-05-05T05:01:22.904Z,656.00
2023-05-05T05:02:24.120Z,663.00
2023-05-05T05:03:24.066Z,655.00
2023-05-05T05:04:23.135Z,655.00
2023-05-05T05:05:23.135Z,655.00
2023-05-05T05:06:23.317Z,649.00
2023-05-05T05:07:23.308Z,654.00
2023-05-05T05:08:23.385Z,652.00
2023-05-05T05:09:23.417Z,656.00
2023-05-05T05:10:23.519Z,656.00
2023-05-05T05:11:23.522Z,652.00
2023-05-05T05:12:23.644Z,652.00
2023-05-05T05:13:24.707Z,655.00
2023-05-05T05:14:23.741Z,656.00
2023-05-05T05:15:23.739Z,655.00
2023-05-05T05:16:24.881Z,652.00
2023-05-05T05:17:23.952Z,650.00
2023-05-05T05:18:23.992Z,648.00
2023-05-05T05:19:23.959Z,654.00
2023-05-05T05:20:25.062Z,653.00
2023-05-05T05:21:24.067Z,646.00
2023-05-05T05:22:25.128Z,650.00
2023-05-05T05:23:24.185Z,656.00
2023-05-05T05:24:25.273Z,652.00
2023-05-05T05:25:24.259Z,652.00
2023-05-05T05:26:24.324Z,649.00
2023-05-05T05:27:24.381Z,651.00
2023-05-05T05:28:24.456Z,653.00
2023-05-05T05:29:24.468Z,650.00
2023-05-05T05:30:24.529Z,652.00
2023-05-05T05:31:25.645Z,652.00
2023-05-05T05:32:25.949Z,656.00
2023-05-05T05:33:24.732Z,662.00
2023-05-05T05:34:25.433Z,656.00
2023-05-05T05:35:24.771Z,661.00
2023-05-05T05:36:25.842Z,656.00
2023-05-05T05:37:24.912Z,662.00
2023-05-05T05:38:25.708Z,660.00
2023-05-05T05:39:26.317Z,662.00
2023-05-05T05:40:26.032Z,674.00
2023-05-05T05:41:25.317Z,683.00
2023-05-05T05:42:26.150Z,678.00
2023-05-05T05:43:25.386Z,685.00
2023-05-05T05:44:25.332Z,677.00
2023-05-05T05:45:25.571Z,702.00
2023-05-05T05:46:25.319Z,710.00
2023-05-05T05:47:26.279Z,708.00
2023-05-05T05:48:25.393Z,721.00
2023-05-05T05:49:26.675Z,724.00
2023-05-05T05:50:25.391Z,726.00
2023-05-05T05:51:25.575Z,721.00
2023-05-05T05:52:25.324Z,732.00
2023-05-05T05:53:27.013Z,735.00
2023-05-05T05:54:25.915Z,729.00
2023-05-05T05:55:25.646Z,711.00
2023-05-05T05:56:25.882Z,691.00
2023-05-05T05:57:25.813Z,646.00
2023-05-05T05:58:26.849Z,637.00
2023-05-05T05:59:25.954Z,628.00
2023-05-05T06:00:26.535Z,616.00
2023-05-05T06:01:25.989Z,613.00
2023-05-05T06:02:25.677Z,613.00
2023-05-05T06:03:26.038Z,608.00
2023-05-05T06:04:27.101Z,609.00
2023-05-05T06:05:26.995Z,598.00
2023-05-05T06:06:26.118Z,588.00
2023-05-05T06:07:25.968Z,581.00
2023-05-05T06:08:25.865Z,573.00
2023-05-05T06:09:25.817Z,564.00
2023-05-05T06:10:28.466Z,555.00
2023-05-05T06:11:26.842Z,550.00
2023-05-05T06:12:25.870Z,549.00
2023-05-05T06:13:25.844Z,526.00
2023-05-05T06:14:26.834Z,560.00
2023-05-05T06:15:25.847Z,544.00
2023-05-05T06:16:26.943Z,521.00
2023-05-05T06:17:27.365Z,540.00
2023-05-05T06:18:25.850Z,539.00
2023-05-05T06:19:25.765Z,544.00
2023-05-05T06:20:25.818Z,534.00
2023-05-05T06:21:25.784Z,531.00
2023-05-05T06:22:25.762Z,547.00
2023-05-05T06:23:25.769Z,531.00
2023-05-05T06:24:26.087Z,523.00
2023-05-05T06:25:25.737Z,540.00
2023-05-05T06:26:26.713Z,541.00
2023-05-05T06:27:26.794Z,536.00
2023-05-05T06:28:25.775Z,542.00
2023-05-05T06:29:25.806Z,548.00
2023-05-05T06:30:26.225Z,550.00
2023-05-05T06:31:26.024Z,536.00
2023-05-05T06:32:26.280Z,547.00
2023-05-05T06:33:26.970Z,562.00
2023-05-05T06:34:25.639Z,557.00
2023-05-05T06:35:26.649Z,565.00
2023-05-05T06:36:25.672Z,564.00
2023-05-05T06:37:25.650Z,548.00
2023-05-05T06:38:25.975Z,537.00
2023-05-05T06:39:26.773Z,540.00
2023-05-05T06:40:25.673Z,544.00
2023-05-05T06:41:25.598Z,544.00
2023-05-05T06:42:25.698Z,542.00
2023-05-05T06:43:26.628Z,532.00
2023-05-05T06:44:26.587Z,530.00
2023-05-05T06:45:25.642Z,524.00
2023-05-05T06:46:25.615Z,531.00
2023-05-05T06:47:26.669Z,533.00
2023-05-05T06:48:25.758Z,532.00
2023-05-05T06:49:25.554Z,524.00
2023-05-05T06:50:25.580Z,520.00
2023-05-05T06:51:25.621Z,523.00
2023-05-05T06:52:26.076Z,524.00
2023-05-05T06:53:26.504Z,501.00
2023-05-05T06:54:26.558Z,508.00
2023-05-05T06:55:26.583Z,508.00
2023-05-05T06:56:25.515Z,502.00
2023-05-05T06:57:26.920Z,500.00
2023-05-05T06:58:25.484Z,500.00
2023-05-05T06:59:25.592Z,502.00
2023-05-05T07:00:25.640Z,503.00
2023-05-05T07:01:26.816Z,503.00
2023-05-05T07:02:26.863Z,503.00
2023-05-05T07:03:25.750Z,506.00
2023-05-05T07:04:25.880Z,500.00
2023-05-05T07:05:25.896Z,501.00
2023-05-05T07:06:25.903Z,501.00
2023-05-05T07:07:26.025Z,507.00
2023-05-05T07:08:26.031Z,500.00
2023-05-05T07:09:26.097Z,500.00
2023-05-05T07:10:26.183Z,500.00
2023-05-05T07:11:27.257Z,504.00
2023-05-05T07:12:26.389Z,501.00
2023-05-05T07:13:26.407Z,500.00
2023-05-05T07:14:27.453Z,505.00
2023-05-05T07:15:29.669Z,501.00
2023-05-05T07:16:27.538Z,500.00
2023-05-05T07:17:26.523Z,504.00
2023-05-05T07:18:27.378Z,504.00
2023-05-05T07:19:26.423Z,503.00
2023-05-05T07:20:27.560Z,504.00
2023-05-05T07:21:27.367Z,502.00
2023-05-05T07:22:27.397Z,503.00
2023-05-05T07:23:26.386Z,504.00
2023-05-05T07:24:26.365Z,509.00
2023-05-05T07:25:26.385Z,517.00
2023-05-05T07:26:26.331Z,520.00
2023-05-05T07:27:27.345Z,525.00
2023-05-05T07:28:27.378Z,526.00
2023-05-05T07:29:26.319Z,532.00
2023-05-05T07:30:26.507Z,533.00
2023-05-05T07:31:27.373Z,531.00
2023-05-05T07:32:26.335Z,530.00
2023-05-05T07:33:26.285Z,527.00
2023-05-05T07:34:27.278Z,541.00
2023-05-05T07:35:26.366Z,537.00
2023-05-05T07:36:26.430Z,537.00
2023-05-05T07:37:26.265Z,527.00
2023-05-05T07:38:26.313Z,505.00
2023-05-05T07:39:26.342Z,503.00
2023-05-05T07:40:26.465Z,500.00
2023-05-05T07:41:26.446Z,502.00
2023-05-05T07:42:27.480Z,512.00
2023-05-05T07:43:26.549Z,502.00
2023-05-05T07:44:26.547Z,500.00
2023-05-05T07:45:27.622Z,506.00
2023-05-05T07:46:26.695Z,508.00
2023-05-05T07:47:28.065Z,517.00
2023-05-05T07:48:27.695Z,500.00
2023-05-05T07:49:26.664Z,499.00
2023-05-05T07:50:26.779Z,524.00
2023-05-05T07:51:27.795Z,532.00
2023-05-05T07:52:43.643Z,541.00
2023-05-05T07:53:27.783Z,542.00
2023-05-05T07:54:26.909Z,546.00
2023-05-05T07:55:26.799Z,561.00
2023-05-05T07:56:26.744Z,589.00
2023-05-05T07:57:26.782Z,621.00
2023-05-05T07:58:27.781Z,649.00
2023-05-05T07:59:27.824Z,680.00
2023-05-05T08:00:26.776Z,722.00
2023-05-05T08:01:26.887Z,761.00
2023-05-05T08:02:26.897Z,802.00
2023-05-05T08:03:26.988Z,837.00
2023-05-05T08:04:26.798Z,864.00
2023-05-05T08:05:26.743Z,896.00
2023-05-05T08:06:26.738Z,935.00
2023-05-05T08:07:27.791Z,969.00
2023-05-05T08:08:27.048Z,1004.00
2023-05-05T08:09:26.795Z,1028.00
2023-05-05T08:10:27.850Z,1052.00
2023-05-05T08:11:29.533Z,1089.00
2023-05-05T08:12:26.907Z,1118.00
2023-05-05T08:13:26.917Z,1143.00
2023-05-05T08:14:27.918Z,1157.00
2023-05-05T08:15:26.977Z,1198.00
2023-05-05T08:16:26.979Z,1203.00
2023-05-05T08:17:26.963Z,1233.00
2023-05-05T08:18:26.863Z,1257.00
2023-05-05T08:19:29.301Z,1274.00
2023-05-05T08:20:26.861Z,1276.00
2023-05-05T08:21:27.912Z,1281.00
2023-05-05T08:22:26.846Z,1302.00
2023-05-05T08:23:26.853Z,1332.00
2023-05-05T08:24:26.958Z,1378.00
2023-05-05T08:25:26.839Z,1399.00
2023-05-05T08:26:27.835Z,1416.00
2023-05-05T08:27:27.818Z,1434.00
2023-05-05T08:28:26.842Z,1451.00
2023-05-05T08:29:26.943Z,1471.00
2023-05-05T08:30:26.796Z,1468.00
2023-05-05T08:31:27.827Z,1483.00
2023-05-05T08:32:29.719Z,1483.00
2023-05-05T08:33:26.856Z,1484.00
2023-05-05T08:34:27.831Z,1493.00
2023-05-05T08:35:26.812Z,1502.00
2023-05-05T08:36:27.763Z,1518.00
2023-05-05T08:37:27.796Z,1544.00
2023-05-05T08:38:26.760Z,1548.00
2023-05-05T08:39:26.792Z,1558.00
2023-05-05T08:40:26.962Z,1571.00
2023-05-05T08:41:26.781Z,1570.00
2023-05-05T08:42:37.159Z,1571.00
2023-05-05T08:43:28.038Z,1573.00
2023-05-05T08:44:26.716Z,1579.00
2023-05-05T08:45:27.746Z,1577.00
2023-05-05T08:46:27.782Z,1576.00
2023-05-05T08:47:26.712Z,1489.00
2023-05-05T08:48:26.787Z,1256.00
2023-05-05T08:49:26.756Z,698.00
2023-05-05T08:50:26.739Z,539.00
2023-05-05T08:51:27.721Z,497.00
2023-05-05T08:52:26.726Z,472.00
2023-05-05T08:53:26.675Z,512.00
2023-05-05T08:54:26.655Z,524.00
2023-05-05T08:55:27.628Z,458.00
2023-05-05T08:56:27.757Z,557.00
2023-05-05T08:57:26.660Z,495.00
2023-05-05T08:58:29.046Z,536.00
2023-05-05T08:59:26.611Z,591.00
2023-05-05T09:00:27.700Z,611.00
2023-05-05T09:01:26.701Z,584.00
2023-05-05T09:02:26.854Z,562.00
2023-05-05T09:03:26.800Z,590.00
2023-05-05T09:04:26.747Z,616.00
2023-05-05T09:05:27.820Z,548.00
2023-05-05T09:06:26.920Z,554.00
2023-05-05T09:07:26.891Z,521.00
2023-05-05T09:08:28.072Z,563.00
2023-05-05T09:09:27.018Z,600.00
2023-05-05T09:10:30.101Z,600.00
2023-05-05T09:11:28.046Z,573.00
2023-05-05T09:12:28.214Z,614.00
2023-05-05T09:13:27.097Z,651.00
2023-05-05T09:14:27.062Z,654.00
2023-05-05T09:15:27.047Z,658.00
2023-05-05T09:16:27.074Z,640.00
2023-05-05T09:17:27.045Z,632.00
2023-05-05T09:18:28.113Z,657.00
2023-05-05T09:19:27.038Z,634.00
2023-05-05T09:20:27.025Z,622.00
2023-05-05T09:21:26.994Z,629.00
2023-05-05T09:22:28.029Z,637.00
2023-05-05T09:23:26.984Z,614.00
2023-05-05T09:24:26.991Z,639.00
2023-05-05T09:25:26.988Z,662.00
2023-05-05T09:26:27.970Z,653.00
2023-05-05T09:27:27.986Z,602.00
2023-05-05T09:28:27.980Z,629.00
2023-05-05T09:29:27.984Z,656.00
2023-05-05T09:30:26.929Z,676.00
2023-05-05T09:31:26.957Z,671.00
2023-05-05T09:32:30.435Z,670.00
2023-05-05T09:33:27.005Z,670.00
2023-05-05T09:34:26.954Z,672.00
2023-05-05T09:35:26.978Z,651.00
2023-05-05T09:36:26.976Z,664.00
2023-05-05T09:37:26.945Z,676.00
2023-05-05T09:38:26.997Z,668.00
2023-05-05T09:39:26.873Z,644.00
2023-05-05T09:40:26.877Z,654.00
2023-05-05T09:41:26.903Z,686.00
2023-05-05T09:42:26.923Z,780.00
2023-05-05T09:43:26.894Z,856.00
2023-05-05T09:44:26.979Z,921.00
2023-05-05T09:45:26.892Z,993.00
2023-05-05T09:46:26.835Z,1028.00
2023-05-05T09:47:29.853Z,1043.00
2023-05-05T09:48:26.904Z,1042.00
2023-05-05T09:49:27.490Z,1036.00
2023-05-05T09:50:26.845Z,986.00
2023-05-05T09:51:26.833Z,1052.00
2023-05-05T09:52:26.833Z,1068.00
2023-05-05T09:53:28.152Z,1090.00
